Time;durP1;ratioP1;P1;durP2;ratioP2;P2;SDS_P1;SDS_P2;PMS_P1;PMS_P2;Temp;Humidity;BMP_temperature;BMP_pressure;BME280_temperature;BME280_humidity;BME280_pressure;Samples;Min_cycle;Max_cycle;Signal;HPM_P1;HPM_P2
2022/06/09 00:02:12;;;;;;;2.60;1.20;;;;;;;;;;10456979;28;20305;-66
2022/06/09 00:07:15;;;;;;;1.30;1.15;;;;;;;;;;10464546;28;20235;-66
2022/06/09 00:12:16;;;;;;;2.08;1.52;;;;;;;;;;10459279;28;21034;-65
2022/06/09 00:17:17;;;;;;;1.30;1.20;;;;;;;;;;10458752;28;20221;-66
2022/06/09 00:22:19;;;;;;;1.95;1.00;;;;;;;;;;10464173;28;20578;-65
2022/06/09 00:27:20;;;;;;;3.60;1.38;;;;;;;;;;10458903;28;20289;-65
2022/06/09 00:32:21;;;;;;;1.35;1.20;;;;;;;;;;10456652;28;20202;-65
2022/06/09 00:37:22;;;;;;;1.30;1.20;;;;;;;;;;10437280;28;20282;-65
2022/06/09 00:42:23;;;;;;;1.42;1.05;;;;;;;;;;10455472;28;20213;-64
2022/06/09 00:47:26;;;;;;;2.05;1.20;;;;;;;;;;10464294;28;20645;-65
2022/06/09 00:52:29;;;;;;;1.52;1.38;;;;;;;;;;10441320;28;20609;-65
2022/06/09 00:57:42;;;;;;;1.33;1.20;;;;;;;;;;10460838;28;20198;-66
2022/06/09 01:02:44;;;;;;;2.65;1.52;;;;;;;;;;10467342;28;20202;-65
2022/06/09 01:07:47;;;;;;;1.40;1.30;;;;;;;;;;10462382;28;20248;-65
2022/06/09 01:12:49;;;;;;;2.83;1.98;;;;;;;;;;10453246;28;20639;-65
2022/06/09 01:18:04;;;;;;;3.83;1.92;;;;;;;;;;10439177;28;20781;-65
2022/06/09 01:23:24;;;;;;;2.40;2.20;;;;;;;;;;10459193;28;20820;-65
2022/06/09 01:28:25;;;;;;;2.17;1.75;;;;;;;;;;10458646;28;20355;-65
2022/06/09 01:33:31;;;;;;;1.80;1.70;;;;;;;;;;10456257;28;20749;-65
2022/06/09 01:38:43;;;;;;;1.63;1.52;;;;;;;;;;10453873;28;20784;-64
2022/06/09 01:43:46;;;;;;;2.50;1.60;;;;;;;;;;10453799;28;20182;-65
2022/06/09 01:48:51;;;;;;;2.58;1.38;;;;;;;;;;10458447;28;20223;-65
2022/06/09 01:53:55;;;;;;;2.10;1.70;;;;;;;;;;10458943;28;20221;-65
2022/06/09 01:59:01;;;;;;;1.42;1.40;;;;;;;;;;10447645;28;20703;-64
2022/06/09 02:04:05;;;;;;;2.08;1.85;;;;;;;;;;10453179;28;20221;-65
2022/06/09 02:09:06;;;;;;;1.63;1.52;;;;;;;;;;10463750;28;20288;-63
2022/06/09 02:14:07;;;;;;;4.68;1.92;;;;;;;;;;10464091;28;20186;-64
2022/06/09 02:19:08;;;;;;;1.98;1.88;;;;;;;;;;10464758;28;20183;-66
2022/06/09 02:24:09;;;;;;;1.83;1.73;;;;;;;;;;10452924;28;20210;-64
2022/06/09 02:29:11;;;;;;;2.05;1.50;;;;;;;;;;10472690;28;20206;-66
2022/06/09 02:34:13;;;;;;;2.40;1.80;;;;;;;;;;10463609;28;20219;-64
2022/06/09 02:39:14;;;;;;;1.80;1.70;;;;;;;;;;10462938;28;20189;-67
2022/06/09 02:44:15;;;;;;;1.63;1.52;;;;;;;;;;10460979;28;20190;-65
2022/06/09 02:49:17;;;;;;;1.48;1.33;;;;;;;;;;10460765;28;20674;-64
2022/06/09 02:54:18;;;;;;;2.03;1.60;;;;;;;;;;10463863;28;20208;-66
2022/06/09 02:59:19;;;;;;;1.73;1.65;;;;;;;;;;10458112;28;20740;-66
2022/06/09 03:04:20;;;;;;;2.83;1.38;;;;;;;;;;10442058;28;20209;-66
2022/06/09 03:09:22;;;;;;;1.80;1.70;;;;;;;;;;10453888;28;20210;-66
2022/06/09 03:14:23;;;;;;;1.60;1.40;;;;;;;;;;10452672;28;20197;-67
2022/06/09 03:19:24;;;;;;;1.45;1.20;;;;;;;;;;10462147;28;20186;-67
2022/06/09 03:24:25;;;;;;;1.38;1.20;;;;;;;;;;10466243;28;20188;-67
2022/06/09 03:29:27;;;;;;;1.40;1.30;;;;;;;;;;10465589;28;20210;-67
2022/06/09 03:34:28;;;;;;;0.90;0.90;;;;;;;;;;10452989;28;20213;-67
2022/06/09 03:39:29;;;;;;;1.00;1.00;;;;;;;;;;10460429;28;20183;-67
2022/06/09 03:44:30;;;;;;;1.48;1.48;;;;;;;;;;10457887;28;20794;-67
2022/06/09 03:49:31;;;;;;;2.20;1.92;;;;;;;;;;10451081;28;20230;-66
2022/06/09 03:54:32;;;;;;;3.70;3.00;;;;;;;;;;10448126;28;20217;-65
2022/06/09 03:59:33;;;;;;;4.00;3.55;;;;;;;;;;10452024;28;20260;-66
2022/06/09 04:04:34;;;;;;;5.60;5.10;;;;;;;;;;10454499;28;20264;-66
2022/06/09 04:09:35;;;;;;;5.88;5.28;;;;;;;;;;10452239;28;20741;-67
2022/06/09 04:14:36;;;;;;;6.30;5.70;;;;;;;;;;10454052;28;20678;-68
2022/06/09 04:19:38;;;;;;;7.05;6.65;;;;;;;;;;10449010;28;20265;-66
2022/06/09 04:24:39;;;;;;;7.55;6.90;;;;;;;;;;10442518;28;20209;-67
2022/06/09 04:29:40;;;;;;;7.85;7.18;;;;;;;;;;10452704;28;20218;-67
2022/06/09 04:34:42;;;;;;;8.40;7.65;;;;;;;;;;10452990;28;20222;-67
2022/06/09 04:39:43;;;;;;;7.30;6.65;;;;;;;;;;10449695;28;20187;-66
2022/06/09 04:44:44;;;;;;;8.20;7.63;;;;;;;;;;10450411;28;20189;-67
2022/06/09 04:49:45;;;;;;;7.13;6.60;;;;;;;;;;10451212;28;20206;-67
2022/06/09 04:54:46;;;;;;;7.95;7.30;;;;;;;;;;10462742;28;20186;-66
2022/06/09 04:59:47;;;;;;;7.47;6.78;;;;;;;;;;10453882;28;20199;-67
2022/06/09 05:04:48;;;;;;;8.80;7.20;;;;;;;;;;10457050;28;20253;-67
2022/06/09 05:09:49;;;;;;;8.43;6.93;;;;;;;;;;10449180;28;20171;-66
2022/06/09 05:14:53;;;;;;;9.95;8.13;;;;;;;;;;10452981;28;20189;-66
2022/06/09 05:19:54;;;;;;;7.57;6.97;;;;;;;;;;10440013;28;20266;-65
2022/06/09 05:24:58;;;;;;;9.00;8.15;;;;;;;;;;10452331;28;20870;-66
2022/06/09 05:30:00;;;;;;;8.98;7.63;;;;;;;;;;10456326;28;20214;-66
2022/06/09 05:35:01;;;;;;;12.43;8.20;;;;;;;;;;10443146;28;21107;-66
2022/06/09 05:45:22;;;;;;;12.05;10.02;;;;;;;;;;10454467;28;20222;-66
2022/06/09 05:50:23;;;;;;;12.35;11.10;;;;;;;;;;10449114;28;20186;-66
2022/06/09 05:55:24;;;;;;;16.60;11.82;;;;;;;;;;10449376;28;20174;-69
2022/06/09 06:00:25;;;;;;;13.35;11.30;;;;;;;;;;10436437;28;20643;-68
2022/06/09 06:10:45;;;;;;;15.45;9.57;;;;;;;;;;10463412;28;20563;-68
2022/06/09 06:15:46;;;;;;;11.80;9.50;;;;;;;;;;10449200;28;20208;-60
2022/06/09 06:20:48;;;;;;;10.57;9.57;;;;;;;;;;10442918;28;20182;-60
2022/06/09 06:25:49;;;;;;;14.05;10.00;;;;;;;;;;10445522;28;20203;-60
2022/06/09 06:30:50;;;;;;;10.43;9.35;;;;;;;;;;10445457;28;20302;-60
2022/06/09 06:35:51;;;;;;;10.35;9.13;;;;;;;;;;10420382;28;20249;-60
2022/06/09 06:40:54;;;;;;;11.27;9.50;;;;;;;;;;10458733;28;20205;-60
2022/06/09 06:45:55;;;;;;;9.48;8.40;;;;;;;;;;10443965;28;20218;-59
2022/06/09 06:50:57;;;;;;;11.80;9.57;;;;;;;;;;10445738;28;20675;-60
2022/06/09 06:55:58;;;;;;;9.82;8.82;;;;;;;;;;10452886;28;20621;-60
2022/06/09 07:01:00;;;;;;;10.45;9.55;;;;;;;;;;10450561;28;20222;-59
2022/06/09 07:06:01;;;;;;;11.80;9.80;;;;;;;;;;10454394;28;20745;-59
2022/06/09 07:11:02;;;;;;;12.88;9.05;;;;;;;;;;10450463;28;20221;-61
2022/06/09 07:16:04;;;;;;;9.30;8.48;;;;;;;;;;10448090;28;20282;-61
2022/06/09 07:21:06;;;;;;;8.27;7.55;;;;;;;;;;10446697;28;20306;-61
2022/06/09 07:26:07;;;;;;;8.52;7.78;;;;;;;;;;10448724;28;20225;-61
2022/06/09 07:31:08;;;;;;;12.88;8.70;;;;;;;;;;10452191;28;20211;-61
2022/06/09 07:36:12;;;;;;;12.65;8.05;;;;;;;;;;10449362;28;20179;-61
2022/06/09 07:41:13;;;;;;;9.77;7.75;;;;;;;;;;10453910;28;20179;-62
2022/06/09 07:46:15;;;;;;;8.93;8.00;;;;;;;;;;10446471;28;20809;-65
2022/06/09 07:51:16;;;;;;;8.02;6.78;;;;;;;;;;10435912;28;20182;-64
2022/06/09 07:56:17;;;;;;;7.93;6.90;;;;;;;;;;10450542;28;20203;-66
2022/06/09 08:01:20;;;;;;;8.95;8.13;;;;;;;;;;10445812;28;20227;-66
2022/06/09 08:06:22;;;;;;;10.07;8.40;;;;;;;;;;10440457;28;20834;-65
2022/06/09 08:11:23;;;;;;;8.00;7.32;;;;;;;;;;10432261;28;20935;-68
2022/06/09 08:16:24;;;;;;;9.70;8.18;;;;;;;;;;10448536;28;20256;-67
2022/06/09 08:21:26;;;;;;;7.50;6.90;;;;;;;;;;10439402;28;20210;-66
2022/06/09 08:26:27;;;;;;;8.02;7.13;;;;;;;;;;10440962;28;20237;-66
2022/06/09 08:31:29;;;;;;;9.95;7.93;;;;;;;;;;10440887;28;20317;-67
2022/06/09 08:36:30;;;;;;;8.98;8.07;;;;;;;;;;10444042;28;20237;-68
2022/06/09 08:41:31;;;;;;;8.13;7.43;;;;;;;;;;10459330;28;20190;-67
2022/06/09 08:46:35;;;;;;;8.75;8.00;;;;;;;;;;10460352;28;20237;-68
2022/06/09 08:51:39;;;;;;;9.02;8.05;;;;;;;;;;10450558;28;20191;-65
2022/06/09 08:56:40;;;;;;;12.30;7.90;;;;;;;;;;10453597;28;20284;-68
2022/06/09 09:01:43;;;;;;;10.10;7.85;;;;;;;;;;10450928;28;20214;-67
2022/06/09 09:06:47;;;;;;;10.32;8.02;;;;;;;;;;10437192;28;20300;-67
2022/06/09 09:12:05;;;;;;;7.53;6.82;;;;;;;;;;10460564;28;20194;-66
2022/06/09 09:17:28;;;;;;;10.20;7.97;;;;;;;;;;10447084;28;20220;-68
2022/06/09 09:22:32;;;;;;;8.38;7.70;;;;;;;;;;10439410;28;20193;-68
2022/06/09 09:27:36;;;;;;;8.80;7.72;;;;;;;;;;10431082;28;20229;-68
2022/06/09 09:32:42;;;;;;;8.65;7.45;;;;;;;;;;10466231;28;20214;-68
2022/06/09 09:37:46;;;;;;;9.27;7.30;;;;;;;;;;10461582;28;20202;-68
2022/06/09 09:42:48;;;;;;;8.65;7.95;;;;;;;;;;10464416;28;20217;-67
2022/06/09 09:47:54;;;;;;;8.77;6.97;;;;;;;;;;10456468;28;20242;-68
2022/06/09 09:53:01;;;;;;;7.30;6.57;;;;;;;;;;10436790;28;20769;-67
2022/06/09 09:58:08;;;;;;;8.05;6.05;;;;;;;;;;10442298;28;20208;-68
2022/06/09 10:08:42;;;;;;;6.97;5.88;;;;;;;;;;10438657;28;20225;-68
2022/06/09 10:13:48;;;;;;;6.35;5.80;;;;;;;;;;10442958;28;20281;-67
2022/06/09 10:18:52;;;;;;;10.57;5.68;;;;;;;;;;10446535;28;20314;-67
2022/06/09 10:23:56;;;;;;;5.65;5.25;;;;;;;;;;10445175;28;20221;-68
2022/06/09 10:29:03;;;;;;;4.80;4.40;;;;;;;;;;10450220;28;20202;-66
2022/06/09 10:34:11;;;;;;;4.20;3.92;;;;;;;;;;10455799;28;20215;-68
2022/06/09 10:39:21;;;;;;;4.70;4.30;;;;;;;;;;10456932;28;20289;-68
2022/06/09 10:44:26;;;;;;;6.88;5.25;;;;;;;;;;10456665;28;20183;-66
2022/06/09 10:55:15;;;;;;;7.85;6.18;;;;;;;;;;10457253;28;20191;-65
2022/06/09 11:00:22;;;;;;;7.43;6.85;;;;;;;;;;10454484;28;20267;-66
2022/06/09 11:05:34;;;;;;;7.40;6.60;;;;;;;;;;10449576;28;20578;-66
2022/06/09 11:10:38;;;;;;;6.18;5.68;;;;;;;;;;10455981;28;20210;-66
2022/06/09 11:15:58;;;;;;;8.10;5.18;;;;;;;;;;10450417;28;20185;-66
2022/06/09 11:21:18;;;;;;;4.40;4.00;;;;;;;;;;10436092;28;20182;-66
2022/06/09 11:26:25;;;;;;;4.57;4.20;;;;;;;;;;10428477;28;20217;-67
2022/06/09 11:31:36;;;;;;;4.28;4.00;;;;;;;;;;10438091;28;20283;-66
2022/06/09 11:36:42;;;;;;;6.88;4.20;;;;;;;;;;10450163;28;20186;-71
2022/06/09 11:41:55;;;;;;;4.03;3.72;;;;;;;;;;10446130;28;20187;-73
2022/06/09 11:47:01;;;;;;;3.38;3.25;;;;;;;;;;10439866;28;20733;-72
2022/06/09 11:52:04;;;;;;;3.65;3.42;;;;;;;;;;10453012;28;20206;-73
2022/06/09 11:57:19;;;;;;;2.45;2.22;;;;;;;;;;10449978;28;20210;-70
2022/06/09 12:02:39;;;;;;;1.50;1.45;;;;;;;;;;10444972;28;20218;-68
2022/06/09 12:07:46;;;;;;;1.90;1.90;;;;;;;;;;10438671;28;20217;-68
2022/06/09 12:13:02;;;;;;;2.45;1.50;;;;;;;;;;10442779;28;20210;-69
2022/06/09 12:18:09;;;;;;;3.42;1.60;;;;;;;;;;10443508;28;20181;-69
2022/06/09 12:23:29;;;;;;;1.98;1.88;;;;;;;;;;10421369;28;20187;-70
2022/06/09 12:28:45;;;;;;;2.15;2.05;;;;;;;;;;10450845;28;20214;-69
2022/06/09 12:33:57;;;;;;;2.10;1.98;;;;;;;;;;10444770;28;21019;-69
2022/06/09 12:38:58;;;;;;;4.53;2.03;;;;;;;;;;10436896;28;20240;-69
2022/06/09 12:44:20;;;;;;;3.72;2.08;;;;;;;;;;10448141;28;20179;-69
2022/06/09 12:49:42;;;;;;;7.30;2.00;;;;;;;;;;10443722;28;20226;-70
2022/06/09 12:54:43;;;;;;;2.92;2.78;;;;;;;;;;10440134;28;20207;-69
2022/06/09 12:59:44;;;;;;;3.50;2.85;;;;;;;;;;10453165;28;20202;-69
2022/06/09 13:04:53;;;;;;;4.55;2.55;;;;;;;;;;10439913;28;20222;-68
2022/06/09 13:10:03;;;;;;;5.15;2.53;;;;;;;;;;10443806;28;20206;-69
2022/06/09 13:15:06;;;;;;;4.57;2.50;;;;;;;;;;10438263;28;20199;-69
2022/06/09 13:20:11;;;;;;;2.15;2.00;;;;;;;;;;10444890;28;20650;-69
2022/06/09 13:25:24;;;;;;;3.22;2.08;;;;;;;;;;10441026;28;20238;-69
2022/06/09 13:30:38;;;;;;;1.90;1.80;;;;;;;;;;10439235;28;20221;-69
2022/06/09 13:35:43;;;;;;;3.75;1.98;;;;;;;;;;10438578;28;20190;-68
2022/06/09 13:40:50;;;;;;;2.08;1.83;;;;;;;;;;10426626;28;20269;-68
2022/06/09 13:45:54;;;;;;;2.13;1.50;;;;;;;;;;10447074;28;20227;-68
2022/06/09 13:51:06;;;;;;;2.10;2.00;;;;;;;;;;10451055;28;20178;-69
2022/06/09 13:56:10;;;;;;;2.13;1.98;;;;;;;;;;10413634;28;20230;-67
2022/06/09 14:01:11;;;;;;;2.10;1.80;;;;;;;;;;10445412;28;20214;-69
2022/06/09 14:06:17;;;;;;;3.80;1.70;;;;;;;;;;10452586;28;20651;-68
2022/06/09 14:11:20;;;;;;;3.28;1.70;;;;;;;;;;10458691;28;20175;-69
2022/06/09 14:16:30;;;;;;;1.35;1.30;;;;;;;;;;10448558;28;20183;-68
2022/06/09 14:21:31;;;;;;;1.13;1.00;;;;;;;;;;10455108;28;20210;-68
2022/06/09 14:26:35;;;;;;;2.35;1.50;;;;;;;;;;10464397;28;20253;-68
2022/06/09 14:31:36;;;;;;;2.55;1.73;;;;;;;;;;10464789;28;20218;-68
2022/06/09 14:36:37;;;;;;;1.70;1.60;;;;;;;;;;10450960;28;20190;-68
2022/06/09 14:41:39;;;;;;;2.55;1.60;;;;;;;;;;10451799;28;20187;-68
2022/06/09 14:46:44;;;;;;;1.77;1.30;;;;;;;;;;10453790;28;20229;-68
2022/06/09 14:51:46;;;;;;;1.60;1.50;;;;;;;;;;10424625;28;20190;-68
2022/06/09 14:56:47;;;;;;;1.67;1.55;;;;;;;;;;10446272;28;20285;-68
2022/06/09 15:01:48;;;;;;;3.63;1.75;;;;;;;;;;10447041;28;20213;-67
2022/06/09 15:06:49;;;;;;;6.40;2.00;;;;;;;;;;10450666;28;20215;-68
2022/06/09 15:11:51;;;;;;;1.70;1.60;;;;;;;;;;10449169;28;20268;-67
2022/06/09 15:16:52;;;;;;;2.47;1.38;;;;;;;;;;10445931;28;20179;-68
2022/06/09 15:21:53;;;;;;;3.67;1.15;;;;;;;;;;10453080;28;20184;-68
2022/06/09 15:26:54;;;;;;;2.70;0.70;;;;;;;;;;10453720;28;20203;-68
2022/06/09 15:31:57;;;;;;;1.95;0.50;;;;;;;;;;10420653;28;20209;-68
2022/06/09 15:36:58;;;;;;;0.60;0.50;;;;;;;;;;10453081;28;20634;-69
2022/06/09 15:41:59;;;;;;;0.95;0.57;;;;;;;;;;10452462;28;20570;-68
2022/06/09 15:47:00;;;;;;;0.40;0.40;;;;;;;;;;10445953;28;20222;-69
2022/06/09 15:52:01;;;;;;;0.50;0.50;;;;;;;;;;10438566;28;20195;-68
2022/06/09 15:57:02;;;;;;;0.95;0.45;;;;;;;;;;10443090;28;20230;-68
2022/06/09 16:02:09;;;;;;;1.23;0.52;;;;;;;;;;10444588;28;20673;-67
2022/06/09 16:07:14;;;;;;;4.32;0.60;;;;;;;;;;10453142;28;20893;-68
2022/06/09 16:12:15;;;;;;;2.72;0.55;;;;;;;;;;10447052;28;20224;-64
2022/06/09 16:17:16;;;;;;;1.00;0.50;;;;;;;;;;10415831;28;20174;-64
2022/06/09 16:22:17;;;;;;;2.05;0.50;;;;;;;;;;10445285;28;21035;-67
2022/06/09 16:27:18;;;;;;;2.22;0.80;;;;;;;;;;10445461;28;20260;-67
2022/06/09 16:32:19;;;;;;;0.60;0.60;;;;;;;;;;10418142;28;22098;-62
2022/06/09 16:37:21;;;;;;;1.95;0.70;;;;;;;;;;10452171;28;20188;-62
2022/06/09 16:42:22;;;;;;;0.88;0.77;;;;;;;;;;10444305;28;20182;-63
2022/06/09 16:47:23;;;;;;;2.05;0.88;;;;;;;;;;10418434;28;20229;-63
2022/06/09 16:52:24;;;;;;;0.75;0.50;;;;;;;;;;10452702;28;20873;-62
2022/06/09 16:57:26;;;;;;;0.80;0.80;;;;;;;;;;10436995;28;20209;-64
2022/06/09 17:02:27;;;;;;;1.40;0.90;;;;;;;;;;10454083;28;20242;-63
2022/06/09 17:07:28;;;;;;;1.13;1.13;;;;;;;;;;10453656;28;20213;-63
2022/06/09 17:12:29;;;;;;;1.95;1.00;;;;;;;;;;10427046;28;20175;-67
2022/06/09 17:17:33;;;;;;;0.80;0.80;;;;;;;;;;10458842;28;20194;-69
2022/06/09 17:22:34;;;;;;;1.30;1.17;;;;;;;;;;10451037;28;20244;-70
2022/06/09 17:27:35;;;;;;;19.38;17.77;;;;;;;;;;10447909;28;20244;-65
2022/06/09 17:32:36;;;;;;;1.80;1.70;;;;;;;;;;10439940;28;20729;-63
2022/06/09 17:37:37;;;;;;;16.02;11.55;;;;;;;;;;10444625;28;20579;-64
2022/06/09 17:42:38;;;;;;;171.98;116.25;;;;;;;;;;10433722;28;20372;-64
2022/06/09 17:47:40;;;;;;;12.02;8.27;;;;;;;;;;10448155;28;20597;-65
2022/06/09 17:52:46;;;;;;;37.55;25.45;;;;;;;;;;10449013;28;20256;-66
2022/06/09 17:57:47;;;;;;;94.25;62.00;;;;;;;;;;10418885;28;20198;-65
2022/06/09 18:02:49;;;;;;;71.97;46.10;;;;;;;;;;10424417;28;20215;-69
2022/06/09 18:07:51;;;;;;;2.17;1.90;;;;;;;;;;10449476;28;20209;-67
2022/06/09 18:12:56;;;;;;;1.15;1.15;;;;;;;;;;10418470;28;20186;-75
2022/06/09 18:17:57;;;;;;;1.77;1.05;;;;;;;;;;10440000;28;20309;-73
2022/06/09 18:23:01;;;;;;;2.05;1.00;;;;;;;;;;10422497;28;20190;-74
2022/06/09 18:28:03;;;;;;;1.65;1.30;;;;;;;;;;10423953;28;20213;-74
2022/06/09 18:33:05;;;;;;;1.27;1.27;;;;;;;;;;10453709;28;22716;-69
2022/06/09 18:38:08;;;;;;;5.72;1.30;;;;;;;;;;10456771;28;21681;-71
2022/06/09 18:43:10;;;;;;;1.88;0.93;;;;;;;;;;10461303;28;20244;-67
2022/06/09 18:48:13;;;;;;;5.85;1.55;;;;;;;;;;10453617;28;20477;-68
2022/06/09 18:53:14;;;;;;;1.65;1.30;;;;;;;;;;10463550;28;20179;-67
2022/06/09 18:58:16;;;;;;;1.60;1.23;;;;;;;;;;10465017;28;20635;-69
2022/06/09 19:03:17;;;;;;;1.48;1.05;;;;;;;;;;10417790;28;20281;-72
2022/06/09 19:08:19;;;;;;;2.08;0.90;;;;;;;;;;10455466;28;20221;-68
2022/06/09 19:13:21;;;;;;;0.98;0.98;;;;;;;;;;10428007;28;20265;-68
2022/06/09 19:18:22;;;;;;;3.30;0.80;;;;;;;;;;10452110;28;20190;-72
2022/06/09 19:23:26;;;;;;;3.22;1.02;;;;;;;;;;10459595;28;20183;-73
2022/06/09 19:28:28;;;;;;;1.10;0.85;;;;;;;;;;10451430;28;20209;-74
2022/06/09 19:33:30;;;;;;;0.90;0.90;;;;;;;;;;10465718;28;20233;-70
2022/06/09 19:38:33;;;;;;;1.50;0.60;;;;;;;;;;10424854;28;20175;-69
2022/06/09 19:43:34;;;;;;;5.05;1.20;;;;;;;;;;10438616;28;20222;-70
2022/06/09 19:48:35;;;;;;;2.60;1.00;;;;;;;;;;10449531;28;20229;-69
2022/06/09 19:53:36;;;;;;;3.45;0.85;;;;;;;;;;10453636;28;20208;-68
2022/06/09 19:58:38;;;;;;;1.15;0.70;;;;;;;;;;10451728;28;20226;-68
2022/06/09 20:03:40;;;;;;;5.05;0.50;;;;;;;;;;10455339;28;20221;-66
2022/06/09 20:08:41;;;;;;;0.63;0.63;;;;;;;;;;10463319;28;20288;-64
2022/06/09 20:13:42;;;;;;;1.75;0.80;;;;;;;;;;10448256;28;20179;-66
2022/06/09 20:18:44;;;;;;;3.75;0.80;;;;;;;;;;10449759;28;20194;-67
2022/06/09 20:23:46;;;;;;;2.08;0.75;;;;;;;;;;10446112;28;20356;-66
2022/06/09 20:28:48;;;;;;;1.85;0.70;;;;;;;;;;10421951;28;20222;-64
2022/06/09 20:33:49;;;;;;;5.32;0.70;;;;;;;;;;10443904;28;20225;-65
2022/06/09 20:38:50;;;;;;;0.80;0.80;;;;;;;;;;10452844;28;20183;-67
2022/06/09 20:43:53;;;;;;;1.00;0.80;;;;;;;;;;10455735;28;20195;-69
2022/06/09 20:48:58;;;;;;;2.05;0.70;;;;;;;;;;10441327;28;20238;-66
2022/06/09 20:54:01;;;;;;;0.80;0.80;;;;;;;;;;10450338;28;20642;-68
2022/06/09 20:59:03;;;;;;;0.90;0.90;;;;;;;;;;10451052;28;20198;-68
2022/06/09 21:04:04;;;;;;;3.05;0.80;;;;;;;;;;10443201;28;20211;-67
2022/06/09 21:09:05;;;;;;;1.42;0.80;;;;;;;;;;10457434;28;20268;-67
2022/06/09 21:19:26;;;;;;;1.48;0.88;;;;;;;;;;10451585;28;20190;-69
2022/06/09 21:24:27;;;;;;;0.85;0.68;;;;;;;;;;10446108;28;20658;-70
2022/06/09 21:29:29;;;;;;;1.15;1.00;;;;;;;;;;10446629;28;20309;-68
2022/06/09 21:34:30;;;;;;;1.00;1.00;;;;;;;;;;10451391;28;20330;-68
2022/06/09 21:39:31;;;;;;;0.82;0.80;;;;;;;;;;10442971;28;20236;-68
2022/06/09 21:44:32;;;;;;;1.00;0.80;;;;;;;;;;10447074;28;20201;-66
2022/06/09 21:49:33;;;;;;;0.73;0.60;;;;;;;;;;10377912;28;20735;-67
2022/06/09 21:54:35;;;;;;;1.00;1.00;;;;;;;;;;10405622;28;20179;-67
2022/06/09 21:59:37;;;;;;;2.47;1.65;;;;;;;;;;10410502;28;20249;-67
2022/06/09 22:04:38;;;;;;;1.58;1.08;;;;;;;;;;10384462;28;20603;-67
2022/06/09 22:09:39;;;;;;;1.20;1.20;;;;;;;;;;10380689;28;20217;-67
2022/06/09 22:14:40;;;;;;;1.48;1.23;;;;;;;;;;10413677;28;20234;-69
2022/06/09 22:19:41;;;;;;;2.28;1.50;;;;;;;;;;10408848;28;21256;-67
2022/06/09 22:24:42;;;;;;;1.33;1.33;;;;;;;;;;10424398;28;20197;-68
2022/06/09 22:29:43;;;;;;;1.40;1.40;;;;;;;;;;10415454;28;20211;-68
2022/06/09 22:34:44;;;;;;;1.88;1.77;;;;;;;;;;10421164;28;20359;-68
2022/06/09 22:39:45;;;;;;;2.88;1.63;;;;;;;;;;10427608;28;20660;-68
2022/06/09 22:44:46;;;;;;;1.08;1.08;;;;;;;;;;10420034;28;20175;-68
2022/06/09 22:49:53;;;;;;;1.23;1.10;;;;;;;;;;10465064;28;20639;-68
2022/06/09 23:00:19;;;;;;;1.23;1.23;;;;;;;;;;10459560;28;20221;-68
2022/06/09 23:05:21;;;;;;;1.20;1.20;;;;;;;;;;10456300;28;20189;-66
2022/06/09 23:10:24;;;;;;;1.33;1.33;;;;;;;;;;10454637;28;20229;-67
2022/06/09 23:15:27;;;;;;;1.63;1.52;;;;;;;;;;10443268;28;20323;-67
2022/06/09 23:20:31;;;;;;;5.82;1.42;;;;;;;;;;10455995;28;20293;-67
2022/06/09 23:25:35;;;;;;;3.80;1.38;;;;;;;;;;10457386;28;20187;-67
2022/06/09 23:30:36;;;;;;;2.45;1.50;;;;;;;;;;10460499;28;20183;-67
2022/06/09 23:35:37;;;;;;;1.90;1.50;;;;;;;;;;10406784;28;20643;-67
2022/06/09 23:40:42;;;;;;;5.07;1.75;;;;;;;;;;10460195;28;20182;-68
2022/06/09 23:45:45;;;;;;;3.70;1.63;;;;;;;;;;10459063;28;20222;-67
2022/06/09 23:50:54;;;;;;;6.22;1.75;;;;;;;;;;10457741;28;20221;-68
2022/06/09 23:55:56;;;;;;;4.90;2.08;;;;;;;;;;10462784;28;20257;-67
